Time;durP1;ratioP1;P1;durP2;ratioP2;P2;SDS_P1;SDS_P2;PMS_P1;PMS_P2;Temp;Humidity;BMP_temperature;BMP_pressure;BME280_temperature;BME280_humidity;BME280_pressure;Samples;Min_cycle;Max_cycle;Signal;HPM_P1;HPM_P2
2023/04/21 00:02:00;;;;;;;6.45;3.50;;;;;;;;;;5073398;28;20195;-47
2023/04/21 00:04:27;;;;;;;7.28;3.60;;;;;;;;;;5073561;28;20231;-48
2023/04/21 00:06:55;;;;;;;5.15;3.22;;;;;;;;;;5073487;28;20218;-51
2023/04/21 00:09:22;;;;;;;5.65;3.75;;;;;;;;;;5073285;28;20226;-51
2023/04/21 00:11:49;;;;;;;4.55;2.90;;;;;;;;;;5073114;28;20199;-51
2023/04/21 00:14:16;;;;;;;5.57;3.33;;;;;;;;;;5073326;28;20261;-50
2023/04/21 00:16:44;;;;;;;4.82;3.30;;;;;;;;;;5073251;28;20199;-47
2023/04/21 00:19:13;;;;;;;4.68;3.17;;;;;;;;;;5072951;28;20664;-47
2023/04/21 00:21:40;;;;;;;4.30;2.92;;;;;;;;;;5073428;28;20622;-49
2023/04/21 00:24:07;;;;;;;5.32;2.78;;;;;;;;;;5073442;28;20203;-47
2023/04/21 00:26:35;;;;;;;5.68;3.38;;;;;;;;;;5073147;28;20203;-47
2023/04/21 00:29:02;;;;;;;4.03;2.90;;;;;;;;;;5055504;28;20590;-48
2023/04/21 00:31:30;;;;;;;5.05;2.95;;;;;;;;;;5055120;28;20656;-47
2023/04/21 00:33:57;;;;;;;4.35;2.85;;;;;;;;;;5055435;28;20199;-49
2023/04/21 00:36:27;;;;;;;7.30;3.17;;;;;;;;;;5055502;28;20195;-49
2023/04/21 00:38:54;;;;;;;3.67;2.75;;;;;;;;;;5072947;28;20615;-47
2023/04/21 00:41:22;;;;;;;5.55;3.05;;;;;;;;;;5072982;28;20214;-48
2023/04/21 00:44:06;;;;;;;5.03;2.75;;;;;;;;;;5072899;28;20619;-47
2023/04/21 00:46:34;;;;;;;3.88;2.65;;;;;;;;;;5072770;28;20333;-47
2023/04/21 00:49:05;;;;;;;4.78;2.60;;;;;;;;;;5072713;28;20223;-48
2023/04/21 00:51:34;;;;;;;4.45;2.78;;;;;;;;;;5072222;28;20198;-48
2023/04/21 00:54:04;;;;;;;6.25;3.08;;;;;;;;;;5072006;28;20252;-48
2023/04/21 00:56:34;;;;;;;3.38;2.65;;;;;;;;;;5072150;28;20229;-47
2023/04/21 00:59:01;;;;;;;3.85;2.72;;;;;;;;;;5053952;28;20212;-47
2023/04/21 01:01:36;;;;;;;5.68;2.85;;;;;;;;;;5055629;28;20207;-47
2023/04/21 01:04:03;;;;;;;4.18;2.30;;;;;;;;;;5076110;28;20188;-48
2023/04/21 01:06:35;;;;;;;3.70;2.63;;;;;;;;;;5058686;28;20211;-49
2023/04/21 01:09:05;;;;;;;3.75;2.53;;;;;;;;;;5057694;28;20227;-48
2023/04/21 01:11:35;;;;;;;6.30;2.60;;;;;;;;;;5058785;28;20211;-48
2023/04/21 01:14:03;;;;;;;4.57;2.72;;;;;;;;;;5076052;28;20212;-47
2023/04/21 01:16:33;;;;;;;4.22;2.97;;;;;;;;;;5058424;28;20203;-48
2023/04/21 01:19:00;;;;;;;4.90;2.83;;;;;;;;;;5058323;28;20575;-47
2023/04/21 01:21:28;;;;;;;6.75;3.08;;;;;;;;;;5058458;28;20206;-47
2023/04/21 01:23:55;;;;;;;5.85;2.85;;;;;;;;;;5058671;28;20207;-48
2023/04/21 01:26:22;;;;;;;5.95;2.85;;;;;;;;;;5058547;28;20207;-47
2023/04/21 01:28:49;;;;;;;2.90;2.25;;;;;;;;;;5058204;28;20200;-48
2023/04/21 01:31:17;;;;;;;5.47;2.38;;;;;;;;;;5058197;28;20203;-47
2023/04/21 01:33:44;;;;;;;3.85;2.50;;;;;;;;;;5075814;28;20207;-47
2023/04/21 01:36:11;;;;;;;6.00;2.83;;;;;;;;;;5058339;28;20211;-47
2023/04/21 01:38:40;;;;;;;4.53;2.63;;;;;;;;;;5058317;28;20203;-48
2023/04/21 01:41:08;;;;;;;5.65;2.63;;;;;;;;;;5076044;28;20204;-47
2023/04/21 01:43:36;;;;;;;3.95;2.70;;;;;;;;;;5058063;28;20207;-48
2023/04/21 01:46:04;;;;;;;2.92;2.15;;;;;;;;;;5075962;28;20196;-48
2023/04/21 01:48:31;;;;;;;6.32;2.65;;;;;;;;;;5075877;28;20199;-47
2023/04/21 01:50:58;;;;;;;4.00;2.28;;;;;;;;;;5075861;28;20231;-47
2023/04/21 01:53:25;;;;;;;4.72;2.42;;;;;;;;;;5075563;28;20199;-50
2023/04/21 01:55:53;;;;;;;3.67;2.35;;;;;;;;;;5076075;28;20203;-47
2023/04/21 01:58:20;;;;;;;5.45;2.08;;;;;;;;;;5058106;28;20222;-47
2023/04/21 02:00:48;;;;;;;2.72;1.98;;;;;;;;;;5057664;28;20265;-48
2023/04/21 02:03:15;;;;;;;4.35;2.50;;;;;;;;;;5057799;28;20207;-47
2023/04/21 02:05:45;;;;;;;2.75;2.20;;;;;;;;;;5075983;28;20200;-49
2023/04/21 02:08:12;;;;;;;4.00;2.55;;;;;;;;;;5075515;28;20217;-48
2023/04/21 02:10:40;;;;;;;2.92;2.15;;;;;;;;;;5057377;28;20601;-47
2023/04/21 02:13:10;;;;;;;3.70;2.50;;;;;;;;;;5057260;28;20286;-47
2023/04/21 02:15:38;;;;;;;3.75;2.50;;;;;;;;;;5057452;28;20229;-48
2023/04/21 02:18:07;;;;;;;3.13;2.38;;;;;;;;;;5057473;28;20249;-48
2023/04/21 02:20:34;;;;;;;2.88;2.05;;;;;;;;;;5057146;28;20231;-48
2023/04/21 02:23:01;;;;;;;3.03;1.95;;;;;;;;;;5057311;28;20200;-47
2023/04/21 02:25:29;;;;;;;4.15;2.40;;;;;;;;;;5075102;28;20204;-47
2023/04/21 02:27:56;;;;;;;4.22;2.50;;;;;;;;;;5074940;28;20199;-47
2023/04/21 02:30:26;;;;;;;2.80;2.20;;;;;;;;;;5057234;28;20223;-47
2023/04/21 02:32:53;;;;;;;4.75;2.20;;;;;;;;;;5075075;28;20210;-48
2023/04/21 02:35:21;;;;;;;4.13;2.22;;;;;;;;;;5075103;28;20214;-47
2023/04/21 02:37:49;;;;;;;4.75;2.00;;;;;;;;;;5056988;28;20211;-47
2023/04/21 02:40:16;;;;;;;3.00;2.00;;;;;;;;;;5074684;28;20203;-48
2023/04/21 02:42:44;;;;;;;4.47;1.92;;;;;;;;;;5073435;28;20200;-49
2023/04/21 02:45:11;;;;;;;3.53;2.10;;;;;;;;;;5073593;28;20200;-48
2023/04/21 02:47:38;;;;;;;3.97;2.50;;;;;;;;;;5073603;28;20203;-48
2023/04/21 02:50:06;;;;;;;3.72;2.10;;;;;;;;;;5074586;28;20234;-48
2023/04/21 02:52:39;;;;;;;2.47;1.92;;;;;;;;;;5070042;28;20207;-47
2023/04/21 02:55:06;;;;;;;4.15;2.03;;;;;;;;;;5074143;28;20200;-47
2023/04/21 02:57:33;;;;;;;2.92;1.92;;;;;;;;;;5074377;28;20286;-49
2023/04/21 03:00:01;;;;;;;3.78;2.15;;;;;;;;;;5074286;28;20601;-48
2023/04/21 03:02:28;;;;;;;3.03;1.92;;;;;;;;;;5056243;28;20227;-47
2023/04/21 03:04:56;;;;;;;4.82;2.13;;;;;;;;;;5074085;28;20226;-47
2023/04/21 03:07:22;;;;;;;3.53;2.17;;;;;;;;;;5074183;28;20203;-47
2023/04/21 03:09:50;;;;;;;2.70;2.05;;;;;;;;;;5055995;28;20234;-47
2023/04/21 03:12:17;;;;;;;2.15;1.95;;;;;;;;;;5056296;28;20294;-47
2023/04/21 03:14:44;;;;;;;3.13;1.95;;;;;;;;;;5073700;28;20215;-47
2023/04/21 03:17:11;;;;;;;3.90;2.40;;;;;;;;;;5073829;28;20249;-47
2023/04/21 03:19:39;;;;;;;4.30;2.35;;;;;;;;;;5073722;28;20855;-47
2023/04/21 03:22:06;;;;;;;4.85;2.05;;;;;;;;;;5073588;28;20565;-47
2023/04/21 03:24:33;;;;;;;2.80;1.88;;;;;;;;;;5055107;28;20204;-47
2023/04/21 03:27:01;;;;;;;7.55;1.90;;;;;;;;;;5073484;28;20656;-53
2023/04/21 03:29:28;;;;;;;3.15;1.92;;;;;;;;;;5052762;28;20197;-50
2023/04/21 03:31:56;;;;;;;2.50;1.90;;;;;;;;;;5055960;28;20217;-48
2023/04/21 03:34:24;;;;;;;2.30;1.75;;;;;;;;;;5055937;28;20206;-48
2023/04/21 03:36:51;;;;;;;3.47;1.88;;;;;;;;;;5050108;28;20612;-47
2023/04/21 03:39:20;;;;;;;3.35;2.05;;;;;;;;;;5035631;28;20579;-47
2023/04/21 03:41:50;;;;;;;3.28;2.00;;;;;;;;;;5035630;28;20214;-47
2023/04/21 03:44:17;;;;;;;2.92;2.00;;;;;;;;;;5053755;28;20226;-47
2023/04/21 03:46:44;;;;;;;1.63;1.40;;;;;;;;;;5053236;28;20262;-48
2023/04/21 03:49:11;;;;;;;3.13;2.03;;;;;;;;;;5053178;28;20208;-47
2023/04/21 03:51:38;;;;;;;3.33;1.92;;;;;;;;;;5052673;28;20631;-49
2023/04/21 03:54:07;;;;;;;1.92;1.60;;;;;;;;;;5053736;28;20204;-47
2023/04/21 03:56:34;;;;;;;4.55;2.00;;;;;;;;;;5052528;28;20617;-47
2023/04/21 03:59:01;;;;;;;3.40;2.15;;;;;;;;;;5053156;28;20216;-48
2023/04/21 04:01:28;;;;;;;3.38;1.75;;;;;;;;;;5053035;28;20240;-47
2023/04/21 04:03:55;;;;;;;3.53;2.35;;;;;;;;;;5052095;28;20207;-54
2023/04/21 04:06:23;;;;;;;3.75;2.20;;;;;;;;;;5059784;28;20262;-47
2023/04/21 04:08:50;;;;;;;3.80;2.20;;;;;;;;;;5053520;28;20235;-48
2023/04/21 04:11:17;;;;;;;3.33;1.67;;;;;;;;;;5071362;28;20226;-47
2023/04/21 04:13:44;;;;;;;2.55;1.80;;;;;;;;;;5091101;28;20616;-47
2023/04/21 04:16:11;;;;;;;2.00;1.63;;;;;;;;;;5078320;28;20281;-47
2023/04/21 04:18:38;;;;;;;2.47;1.90;;;;;;;;;;5072114;28;20231;-47
2023/04/21 04:21:08;;;;;;;4.45;1.73;;;;;;;;;;5077974;28;20230;-48
2023/04/21 04:23:36;;;;;;;3.40;1.80;;;;;;;;;;5090754;28;20227;-51
2023/04/21 04:26:04;;;;;;;2.83;2.00;;;;;;;;;;5072420;28;20318;-51
2023/04/21 04:28:32;;;;;;;1.90;1.60;;;;;;;;;;5072369;28;20228;-51
2023/04/21 04:30:59;;;;;;;3.05;2.08;;;;;;;;;;5072271;28;20227;-51
2023/04/21 04:33:27;;;;;;;3.10;1.70;;;;;;;;;;5072495;28;20231;-47
2023/04/21 04:35:54;;;;;;;2.45;1.98;;;;;;;;;;5080061;28;20298;-46
2023/04/21 04:38:21;;;;;;;2.88;2.20;;;;;;;;;;5084333;28;20695;-48
2023/04/21 04:40:56;;;;;;;2.78;2.10;;;;;;;;;;5077825;28;20219;-49
2023/04/21 04:43:24;;;;;;;2.95;2.00;;;;;;;;;;5080973;28;20274;-49
2023/04/21 04:45:51;;;;;;;4.18;2.33;;;;;;;;;;5081441;28;20233;-49
2023/04/21 04:48:18;;;;;;;4.35;2.08;;;;;;;;;;5054135;28;20224;-49
2023/04/21 04:50:45;;;;;;;3.00;2.00;;;;;;;;;;5054343;28;20315;-48
2023/04/21 04:53:12;;;;;;;4.07;2.20;;;;;;;;;;5054009;28;20231;-50
2023/04/21 04:55:39;;;;;;;3.50;1.88;;;;;;;;;;5078011;28;20864;-52
2023/04/21 04:58:07;;;;;;;3.50;2.00;;;;;;;;;;5084241;28;20222;-48
2023/04/21 05:00:35;;;;;;;2.67;1.90;;;;;;;;;;5089984;28;20218;-47
2023/04/21 05:03:03;;;;;;;3.67;2.10;;;;;;;;;;5095008;28;20227;-47
2023/04/21 05:05:30;;;;;;;3.65;1.90;;;;;;;;;;5095439;28;20219;-50
2023/04/21 05:07:58;;;;;;;3.63;2.28;;;;;;;;;;5072566;28;20226;-48
2023/04/21 05:10:25;;;;;;;3.38;2.15;;;;;;;;;;5078098;28;20268;-50
2023/04/21 05:12:52;;;;;;;2.95;2.22;;;;;;;;;;5084978;28;20214;-50
2023/04/21 05:15:19;;;;;;;3.70;1.88;;;;;;;;;;5079178;28;20684;-48
2023/04/21 05:17:46;;;;;;;3.42;2.08;;;;;;;;;;5075571;28;20203;-50
2023/04/21 05:20:14;;;;;;;3.20;2.25;;;;;;;;;;5075321;28;20239;-48
2023/04/21 05:22:42;;;;;;;2.78;2.10;;;;;;;;;;5076121;28;20606;-49
2023/04/21 05:25:11;;;;;;;2.83;2.10;;;;;;;;;;5075846;28;20199;-48
2023/04/21 05:27:38;;;;;;;3.53;2.13;;;;;;;;;;5076044;28;20729;-48
2023/04/21 05:30:05;;;;;;;2.65;1.90;;;;;;;;;;5076165;28;20207;-48
2023/04/21 05:32:33;;;;;;;3.42;2.03;;;;;;;;;;5075987;28;20691;-48
2023/04/21 05:35:00;;;;;;;3.17;2.03;;;;;;;;;;5076339;28;20207;-49
2023/04/21 05:37:27;;;;;;;2.45;2.00;;;;;;;;;;5076118;28;20568;-49
2023/04/21 05:39:54;;;;;;;4.28;2.10;;;;;;;;;;5075895;28;20675;-48
2023/04/21 05:42:21;;;;;;;6.18;1.70;;;;;;;;;;5075915;28;20214;-49
2023/04/21 05:44:48;;;;;;;3.33;1.88;;;;;;;;;;5076112;28;20207;-50
2023/04/21 05:47:15;;;;;;;3.05;2.00;;;;;;;;;;5074776;28;20675;-48
2023/04/21 05:49:48;;;;;;;2.08;1.77;;;;;;;;;;5058217;28;20202;-48
2023/04/21 05:52:16;;;;;;;3.08;1.95;;;;;;;;;;5075607;28;20231;-48
2023/04/21 05:54:43;;;;;;;2.20;1.60;;;;;;;;;;5075960;28;20298;-49
2023/04/21 05:57:10;;;;;;;3.00;1.83;;;;;;;;;;5075917;28;20210;-49
2023/04/21 05:59:38;;;;;;;5.65;1.95;;;;;;;;;;5075843;28;20294;-48
2023/04/21 06:02:05;;;;;;;3.40;1.88;;;;;;;;;;5076001;28;20207;-48
2023/04/21 06:04:32;;;;;;;2.50;1.65;;;;;;;;;;5075625;28;20204;-48
2023/04/21 06:07:06;;;;;;;3.13;2.10;;;;;;;;;;5057794;28;20211;-49
2023/04/21 06:09:35;;;;;;;3.22;1.60;;;;;;;;;;5075768;28;20202;-48
2023/04/21 06:12:02;;;;;;;2.63;1.70;;;;;;;;;;5075264;28;20246;-48
2023/04/21 06:14:29;;;;;;;2.55;1.45;;;;;;;;;;5075433;28;20206;-49
2023/04/21 06:16:57;;;;;;;2.70;1.60;;;;;;;;;;5057639;28;20206;-48
2023/04/21 06:19:24;;;;;;;3.33;2.13;;;;;;;;;;5074796;28;20207;-48
2023/04/21 06:21:51;;;;;;;2.63;1.67;;;;;;;;;;5075153;28;20556;-49
2023/04/21 06:24:24;;;;;;;3.20;1.73;;;;;;;;;;5075080;28;20207;-48
2023/04/21 06:26:52;;;;;;;2.30;1.50;;;;;;;;;;5075493;28;20188;-49
2023/04/21 06:29:19;;;;;;;2.15;1.75;;;;;;;;;;5075301;28;20207;-49
2023/04/21 06:31:46;;;;;;;4.53;2.25;;;;;;;;;;5074951;28;20227;-48
2023/04/21 06:34:14;;;;;;;2.83;1.73;;;;;;;;;;5075210;28;20204;-48
2023/04/21 06:36:41;;;;;;;4.63;1.83;;;;;;;;;;5075014;28;20218;-49
2023/04/21 06:39:09;;;;;;;2.45;1.50;;;;;;;;;;5074982;28;20195;-48
2023/04/21 06:41:36;;;;;;;2.70;1.73;;;;;;;;;;5074968;28;20204;-50
2023/04/21 06:44:03;;;;;;;2.42;1.75;;;;;;;;;;5074879;28;20207;-50
2023/04/21 06:46:30;;;;;;;4.47;1.70;;;;;;;;;;5074530;28;20223;-48
2023/04/21 06:48:58;;;;;;;2.25;1.50;;;;;;;;;;5074806;28;20656;-49
2023/04/21 06:51:24;;;;;;;3.90;1.70;;;;;;;;;;5074439;28;20235;-49
2023/04/21 06:53:52;;;;;;;2.65;1.90;;;;;;;;;;5056912;28;20211;-49
2023/04/21 06:56:20;;;;;;;2.72;1.80;;;;;;;;;;5074606;28;20257;-48
2023/04/21 06:58:47;;;;;;;2.22;1.88;;;;;;;;;;5073608;28;20245;-48
2023/04/21 07:01:14;;;;;;;4.38;2.00;;;;;;;;;;5074515;28;20229;-49
2023/04/21 07:03:42;;;;;;;2.42;1.80;;;;;;;;;;5074532;28;20203;-48
2023/04/21 07:06:09;;;;;;;3.78;1.80;;;;;;;;;;5074217;28;20199;-49
2023/04/21 07:08:37;;;;;;;4.53;1.88;;;;;;;;;;5074083;28;20210;-50
2023/04/21 07:11:04;;;;;;;3.38;2.13;;;;;;;;;;5074139;28;20219;-48
2023/04/21 07:13:31;;;;;;;3.72;1.98;;;;;;;;;;5074058;28;20202;-48
2023/04/21 07:15:59;;;;;;;3.03;2.00;;;;;;;;;;5074309;28;20203;-48
2023/04/21 07:18:26;;;;;;;2.38;1.95;;;;;;;;;;5074145;28;20203;-50
2023/04/21 07:20:53;;;;;;;2.47;1.70;;;;;;;;;;5073755;28;20597;-49
2023/04/21 07:23:20;;;;;;;2.33;1.70;;;;;;;;;;5073958;28;20248;-48
2023/04/21 07:25:47;;;;;;;2.55;1.90;;;;;;;;;;5073909;28;20261;-48
2023/04/21 07:28:14;;;;;;;2.83;1.80;;;;;;;;;;5073854;28;20219;-48
2023/04/21 07:30:42;;;;;;;3.42;2.10;;;;;;;;;;5073956;28;20253;-48
2023/04/21 07:33:09;;;;;;;3.00;1.67;;;;;;;;;;5074121;28;20203;-48
2023/04/21 07:35:36;;;;;;;4.35;1.98;;;;;;;;;;5073866;28;20195;-48
2023/04/21 07:38:03;;;;;;;4.68;2.10;;;;;;;;;;5056205;28;20204;-48
2023/04/21 07:40:30;;;;;;;3.30;1.88;;;;;;;;;;5073567;28;20660;-48
2023/04/21 07:42:57;;;;;;;4.47;1.95;;;;;;;;;;5073893;28;20195;-49
2023/04/21 07:45:25;;;;;;;2.65;1.70;;;;;;;;;;5073603;28;20230;-48
2023/04/21 07:47:52;;;;;;;2.22;1.40;;;;;;;;;;5073752;28;20210;-48
2023/04/21 07:50:19;;;;;;;2.33;1.63;;;;;;;;;;5073817;28;20213;-48
2023/04/21 07:52:47;;;;;;;1.70;1.38;;;;;;;;;;5073468;28;20223;-49
2023/04/21 07:55:14;;;;;;;2.00;1.42;;;;;;;;;;5073394;28;20660;-48
2023/04/21 07:57:41;;;;;;;2.38;1.83;;;;;;;;;;5073672;28;20207;-48
2023/04/21 08:00:09;;;;;;;1.95;1.48;;;;;;;;;;5073595;28;20195;-49
2023/04/21 08:02:39;;;;;;;2.05;1.60;;;;;;;;;;5073732;28;20199;-49
2023/04/21 08:05:07;;;;;;;2.38;1.67;;;;;;;;;;5073847;28;20203;-48
2023/04/21 08:07:35;;;;;;;2.58;1.75;;;;;;;;;;5073380;28;20211;-48
2023/04/21 08:10:03;;;;;;;2.20;1.70;;;;;;;;;;5073271;28;20245;-49
2023/04/21 08:12:30;;;;;;;3.38;2.05;;;;;;;;;;5073151;28;20223;-49
2023/04/21 08:14:57;;;;;;;2.28;1.30;;;;;;;;;;5073474;28;20199;-48
2023/04/21 08:17:24;;;;;;;4.82;1.35;;;;;;;;;;5073516;28;20566;-49
2023/04/21 08:19:51;;;;;;;4.07;1.52;;;;;;;;;;5073051;28;20655;-48
2023/04/21 08:22:19;;;;;;;2.25;1.50;;;;;;;;;;5073180;28;20211;-48
2023/04/21 08:24:46;;;;;;;2.85;1.55;;;;;;;;;;5073155;28;20211;-49
2023/04/21 08:27:13;;;;;;;2.05;1.50;;;;;;;;;;5073616;28;20206;-48
2023/04/21 08:29:40;;;;;;;2.92;1.60;;;;;;;;;;5073132;28;20200;-48
2023/04/21 08:32:07;;;;;;;2.45;1.38;;;;;;;;;;5073232;28;20234;-48
2023/04/21 08:34:34;;;;;;;2.10;1.50;;;;;;;;;;5073016;28;20253;-50
2023/04/21 08:37:02;;;;;;;2.00;1.58;;;;;;;;;;5073276;28;20214;-49
2023/04/21 08:39:29;;;;;;;2.20;1.40;;;;;;;;;;5073483;28;20199;-48
2023/04/21 08:41:57;;;;;;;1.83;1.33;;;;;;;;;;5073338;28;20219;-48
2023/04/21 08:44:25;;;;;;;3.03;1.52;;;;;;;;;;5073264;28;20203;-49
2023/04/21 08:46:54;;;;;;;1.92;1.40;;;;;;;;;;5073414;28;20215;-50
2023/04/21 08:49:23;;;;;;;2.78;1.48;;;;;;;;;;5055206;28;20207;-50
2023/04/21 08:51:50;;;;;;;3.63;1.50;;;;;;;;;;5072754;28;20587;-48
2023/04/21 08:54:17;;;;;;;2.55;1.55;;;;;;;;;;5073023;28;20721;-49
2023/04/21 08:56:47;;;;;;;2.20;1.50;;;;;;;;;;5072743;28;20676;-50
2023/04/21 08:59:14;;;;;;;3.78;1.30;;;;;;;;;;5072934;28;20202;-49
2023/04/21 09:02:16;;;;;;;4.20;1.55;;;;;;;;;;5072903;28;20207;-49
2023/04/21 09:04:45;;;;;;;3.22;1.80;;;;;;;;;;5072746;28;20668;-48
2023/04/21 09:07:48;;;;;;;1.30;1.20;;;;;;;;;;5072685;28;20200;-50
2023/04/21 09:10:22;;;;;;;2.08;1.10;;;;;;;;;;4991340;28;20212;-49
2023/04/21 09:12:51;;;;;;;2.65;1.42;;;;;;;;;;4991431;28;20773;-49
2023/04/21 09:15:20;;;;;;;2.45;1.58;;;;;;;;;;4991450;28;20205;-48
2023/04/21 09:17:55;;;;;;;1.88;1.48;;;;;;;;;;4991308;28;20663;-48
2023/04/21 09:20:23;;;;;;;4.13;1.48;;;;;;;;;;4991477;28;20233;-49
2023/04/21 09:22:51;;;;;;;2.60;1.60;;;;;;;;;;4992725;28;20201;-50
2023/04/21 09:25:19;;;;;;;2.22;1.40;;;;;;;;;;4994891;28;20217;-48
2023/04/21 09:27:47;;;;;;;1.50;1.25;;;;;;;;;;4994935;28;20260;-49
2023/04/21 09:30:18;;;;;;;2.35;1.60;;;;;;;;;;4994921;28;20301;-48
2023/04/21 09:32:45;;;;;;;1.90;1.42;;;;;;;;;;4994782;28;20774;-49
2023/04/21 09:35:12;;;;;;;2.28;1.55;;;;;;;;;;4994733;28;20217;-48
2023/04/21 09:37:42;;;;;;;2.85;1.40;;;;;;;;;;4994651;28;20206;-50
2023/04/21 09:40:31;;;;;;;1.48;1.25;;;;;;;;;;4994679;28;20213;-49
2023/04/21 09:42:58;;;;;;;3.90;2.20;;;;;;;;;;4994591;28;20198;-50
2023/04/21 09:45:27;;;;;;;2.17;1.35;;;;;;;;;;5053896;28;20200;-49
2023/04/21 09:48:08;;;;;;;2.30;1.20;;;;;;;;;;5056204;28;20245;-49
2023/04/21 09:50:35;;;;;;;2.65;1.60;;;;;;;;;;5038225;28;20200;-49
2023/04/21 09:53:14;;;;;;;2.42;1.50;;;;;;;;;;5055860;28;20231;-50
2023/04/21 09:55:42;;;;;;;3.70;1.60;;;;;;;;;;5055824;28;20260;-50
2023/04/21 09:58:10;;;;;;;2.95;1.48;;;;;;;;;;5038088;28;20208;-49
2023/04/21 10:00:38;;;;;;;6.03;1.45;;;;;;;;;;5038038;28;20602;-49
2023/04/21 10:03:10;;;;;;;2.55;1.80;;;;;;;;;;5055349;28;20274;-52
2023/04/21 10:05:38;;;;;;;3.33;1.70;;;;;;;;;;5054861;28;20199;-50
2023/04/21 10:08:10;;;;;;;3.25;1.60;;;;;;;;;;5055668;28;20199;-49
2023/04/21 10:10:37;;;;;;;1.85;1.52;;;;;;;;;;5055285;28;20219;-50
2023/04/21 10:13:05;;;;;;;2.95;1.55;;;;;;;;;;5055229;28;20277;-49
2023/04/21 10:15:34;;;;;;;2.88;1.90;;;;;;;;;;5053524;28;20218;-50
2023/04/21 10:18:12;;;;;;;3.45;1.58;;;;;;;;;;5055013;28;20200;-49
2023/04/21 10:21:06;;;;;;;1.92;1.58;;;;;;;;;;5073077;28;20317;-50
2023/04/21 10:23:50;;;;;;;3.25;1.30;;;;;;;;;;5095388;28;20206;-50
2023/04/21 10:26:22;;;;;;;2.47;1.25;;;;;;;;;;5095590;28;20297;-49
2023/04/21 10:28:58;;;;;;;1.55;1.33;;;;;;;;;;5095421;28;20268;-48
2023/04/21 10:31:36;;;;;;;1.88;1.48;;;;;;;;;;5095201;28;20220;-48
2023/04/21 10:34:11;;;;;;;2.15;1.38;;;;;;;;;;5095318;28;20206;-49
2023/04/21 10:36:44;;;;;;;2.63;1.77;;;;;;;;;;5095437;28;20186;-50
2023/04/21 10:39:32;;;;;;;2.60;1.50;;;;;;;;;;5095183;28;20725;-49
2023/04/21 10:42:11;;;;;;;3.25;2.03;;;;;;;;;;5095071;28;20198;-49
2023/04/21 10:44:52;;;;;;;2.70;1.60;;;;;;;;;;5094883;28;20217;-49
2023/04/21 10:47:37;;;;;;;2.53;1.80;;;;;;;;;;5095178;28;20209;-49
2023/04/21 10:50:16;;;;;;;2.85;1.70;;;;;;;;;;5094927;28;20203;-48
2023/04/21 10:53:10;;;;;;;2.33;1.60;;;;;;;;;;5094997;28;20265;-49
2023/04/21 10:55:38;;;;;;;3.45;1.67;;;;;;;;;;5067876;28;20218;-49
2023/04/21 10:58:08;;;;;;;3.28;1.70;;;;;;;;;;5094944;28;20247;-50
2023/04/21 11:00:39;;;;;;;2.65;1.77;;;;;;;;;;5094557;28;20199;-48
2023/04/21 11:03:07;;;;;;;2.50;1.15;;;;;;;;;;5095192;28;20546;-49
2023/04/21 11:05:39;;;;;;;2.08;1.33;;;;;;;;;;5094813;28;20210;-49
2023/04/21 11:08:06;;;;;;;3.88;2.20;;;;;;;;;;5094727;28;20289;-49
2023/04/21 11:10:53;;;;;;;1.88;1.58;;;;;;;;;;5094547;28;20207;-49
2023/04/21 11:13:22;;;;;;;2.90;1.70;;;;;;;;;;5094596;28;20227;-50
2023/04/21 11:16:05;;;;;;;3.00;1.90;;;;;;;;;;5094630;28;20213;-49
2023/04/21 11:18:39;;;;;;;2.55;1.60;;;;;;;;;;5094134;28;20206;-49
2023/04/21 11:21:08;;;;;;;2.22;1.60;;;;;;;;;;5094120;28;20252;-51
2023/04/21 11:23:39;;;;;;;3.22;1.83;;;;;;;;;;5093619;28;20207;-49
2023/04/21 11:26:07;;;;;;;2.72;1.67;;;;;;;;;;5094219;28;20199;-50
2023/04/21 11:28:34;;;;;;;3.33;1.73;;;;;;;;;;5093892;28;20203;-48
2023/04/21 11:31:01;;;;;;;2.85;1.75;;;;;;;;;;5094099;28;20198;-49
2023/04/21 11:33:29;;;;;;;2.53;1.73;;;;;;;;;;5076182;28;20580;-49
2023/04/21 11:35:57;;;;;;;4.55;2.20;;;;;;;;;;5093991;28;20199;-49
2023/04/21 11:38:24;;;;;;;2.50;1.73;;;;;;;;;;5076526;28;20194;-49
2023/04/21 11:40:52;;;;;;;3.67;1.80;;;;;;;;;;5093986;28;20228;-49
2023/04/21 11:43:20;;;;;;;2.95;1.83;;;;;;;;;;5093889;28;20206;-50
2023/04/21 11:45:49;;;;;;;3.15;2.10;;;;;;;;;;5081722;28;20195;-48
2023/04/21 11:48:19;;;;;;;2.22;1.75;;;;;;;;;;5061420;28;20202;-49
2023/04/21 11:50:48;;;;;;;3.50;1.75;;;;;;;;;;5062889;28;20192;-49
2023/04/21 11:53:15;;;;;;;2.95;1.65;;;;;;;;;;5060432;28;20295;-48
2023/04/21 11:55:44;;;;;;;2.65;1.70;;;;;;;;;;5060440;28;20245;-53
2023/04/21 11:58:14;;;;;;;4.20;2.17;;;;;;;;;;5061503;28;20562;-48
2023/04/21 12:00:45;;;;;;;5.75;2.13;;;;;;;;;;5061388;28;20249;-48
2023/04/21 12:03:12;;;;;;;3.47;1.77;;;;;;;;;;5046115;28;20584;-50
2023/04/21 12:05:40;;;;;;;2.80;1.70;;;;;;;;;;5061495;28;20191;-49
2023/04/21 12:08:14;;;;;;;2.30;1.63;;;;;;;;;;5045581;28;20195;-51
2023/04/21 12:10:45;;;;;;;2.72;1.63;;;;;;;;;;5045032;28;20207;-49
2023/04/21 12:13:20;;;;;;;3.17;1.42;;;;;;;;;;5061320;28;20208;-50
2023/04/21 12:15:48;;;;;;;3.78;1.58;;;;;;;;;;5061066;28;20192;-48
2023/04/21 12:18:15;;;;;;;3.25;1.80;;;;;;;;;;5061972;28;20198;-48
2023/04/21 12:20:50;;;;;;;2.17;1.45;;;;;;;;;;5068087;28;20233;-48
2023/04/21 12:23:17;;;;;;;2.30;1.48;;;;;;;;;;5080452;28;20248;-47
2023/04/21 12:25:45;;;;;;;3.30;1.40;;;;;;;;;;5078313;28;20199;-53
2023/04/21 12:28:16;;;;;;;2.80;1.50;;;;;;;;;;5091373;28;20191;-48
2023/04/21 12:30:43;;;;;;;4.07;1.85;;;;;;;;;;5093633;28;20210;-48
2023/04/21 12:33:11;;;;;;;2.60;1.42;;;;;;;;;;5093171;28;20222;-48
2023/04/21 12:35:38;;;;;;;5.40;1.63;;;;;;;;;;5093213;28;20671;-49
2023/04/21 12:38:05;;;;;;;1.40;1.25;;;;;;;;;;5058844;28;20204;-48
2023/04/21 12:40:34;;;;;;;2.08;1.25;;;;;;;;;;5073217;28;20558;-47
2023/04/21 12:43:01;;;;;;;2.10;1.33;;;;;;;;;;5081075;28;20331;-52
2023/04/21 12:45:28;;;;;;;2.33;1.40;;;;;;;;;;5084147;28;20272;-56
2023/04/21 12:47:57;;;;;;;1.70;1.17;;;;;;;;;;5069537;28;20219;-49
2023/04/21 12:50:24;;;;;;;1.30;0.90;;;;;;;;;;5060942;28;20235;-49
2023/04/21 12:52:54;;;;;;;2.05;1.30;;;;;;;;;;5069726;28;20231;-48
2023/04/21 12:55:21;;;;;;;1.77;1.05;;;;;;;;;;5067258;28;20576;-48
2023/04/21 12:57:49;;;;;;;3.10;1.45;;;;;;;;;;5093829;28;20780;-48
2023/04/21 13:00:16;;;;;;;1.70;1.30;;;;;;;;;;5096226;28;20222;-48
2023/04/21 13:02:43;;;;;;;1.92;1.20;;;;;;;;;;5053983;28;20749;-49
2023/04/21 13:05:12;;;;;;;1.45;1.20;;;;;;;;;;5056218;28;20224;-48
2023/04/21 13:07:39;;;;;;;1.25;1.00;;;;;;;;;;5056046;28;20318;-49
2023/04/21 13:10:07;;;;;;;2.70;1.10;;;;;;;;;;5055756;28;20723;-48
2023/04/21 13:12:34;;;;;;;0.73;0.73;;;;;;;;;;5054875;28;20239;-49
2023/04/21 13:15:02;;;;;;;1.08;0.77;;;;;;;;;;5054993;28;20641;-49
2023/04/21 13:17:29;;;;;;;1.98;1.17;;;;;;;;;;5054861;28;20228;-48
2023/04/21 13:19:56;;;;;;;2.95;0.93;;;;;;;;;;5055598;28;20693;-48
2023/04/21 13:22:23;;;;;;;1.60;0.95;;;;;;;;;;5037603;28;20243;-49
2023/04/21 13:24:50;;;;;;;1.73;0.82;;;;;;;;;;5055749;28;20234;-48
2023/04/21 13:27:17;;;;;;;2.20;1.00;;;;;;;;;;5055195;28;20323;-48
2023/04/21 13:29:46;;;;;;;1.92;0.98;;;;;;;;;;5055583;28;20282;-49
2023/04/21 13:32:13;;;;;;;4.22;0.77;;;;;;;;;;5060614;28;20220;-49
2023/04/21 13:34:41;;;;;;;1.38;0.80;;;;;;;;;;5075537;28;20329;-52
2023/04/21 13:37:11;;;;;;;3.35;1.00;;;;;;;;;;5075404;28;20272;-48
2023/04/21 13:39:38;;;;;;;1.23;0.88;;;;;;;;;;5069892;28;20204;-49
2023/04/21 13:42:05;;;;;;;1.13;0.80;;;;;;;;;;5057699;28;20669;-49
2023/04/21 13:44:33;;;;;;;1.50;0.70;;;;;;;;;;5063852;28;20199;-52
2023/04/21 13:47:00;;;;;;;1.52;0.90;;;;;;;;;;5073026;28;20203;-51
2023/04/21 13:49:27;;;;;;;0.98;0.57;;;;;;;;;;5072641;28;20203;-49
2023/04/21 13:51:55;;;;;;;1.27;0.80;;;;;;;;;;5059343;28;20215;-49
2023/04/21 13:54:22;;;;;;;0.75;0.68;;;;;;;;;;5054038;28;20285;-52
2023/04/21 13:56:50;;;;;;;1.40;0.60;;;;;;;;;;5054098;28;20216;-50
2023/04/21 13:59:19;;;;;;;1.23;1.00;;;;;;;;;;5053810;28;20204;-49
2023/04/21 14:01:46;;;;;;;1.08;0.73;;;;;;;;;;5055087;28;20252;-48
2023/04/21 14:04:14;;;;;;;0.77;0.63;;;;;;;;;;5060357;28;20211;-49
2023/04/21 14:06:41;;;;;;;0.88;0.80;;;;;;;;;;5011965;28;20192;-48
2023/04/21 14:09:09;;;;;;;0.85;0.70;;;;;;;;;;5074780;28;20313;-48
2023/04/21 14:11:36;;;;;;;1.27;0.88;;;;;;;;;;5074644;28;20659;-48
2023/04/21 14:14:03;;;;;;;0.75;0.60;;;;;;;;;;5073140;28;20234;-49
2023/04/21 14:16:35;;;;;;;0.70;0.65;;;;;;;;;;5075227;28;20644;-49
2023/04/21 14:19:03;;;;;;;0.77;0.65;;;;;;;;;;5079818;28;20249;-49
2023/04/21 14:21:31;;;;;;;1.30;0.82;;;;;;;;;;5084168;28;20318;-48
2023/04/21 14:23:58;;;;;;;1.08;0.63;;;;;;;;;;5068751;28;20211;-48
2023/04/21 14:26:25;;;;;;;0.63;0.63;;;;;;;;;;5078241;28;20223;-48
2023/04/21 14:28:53;;;;;;;1.52;0.75;;;;;;;;;;5075970;28;20228;-48
2023/04/21 14:31:20;;;;;;;0.85;0.65;;;;;;;;;;5082286;28;20210;-49
2023/04/21 14:33:48;;;;;;;1.13;0.77;;;;;;;;;;5073900;28;20235;-49
2023/04/21 14:36:15;;;;;;;1.50;0.93;;;;;;;;;;5074697;28;20289;-48
2023/04/21 14:38:43;;;;;;;1.95;0.85;;;;;;;;;;5074791;28;20200;-48
2023/04/21 14:41:10;;;;;;;2.63;0.70;;;;;;;;;;5074773;28;20728;-49
2023/04/21 14:43:37;;;;;;;1.38;0.85;;;;;;;;;;5074835;28;20199;-49
2023/04/21 14:46:04;;;;;;;0.93;0.70;;;;;;;;;;5074660;28;20210;-48
2023/04/21 14:48:32;;;;;;;2.00;1.00;;;;;;;;;;5056907;28;20686;-49
2023/04/21 14:50:59;;;;;;;1.45;1.20;;;;;;;;;;5074518;28;20204;-50
2023/04/21 14:53:27;;;;;;;4.20;3.05;;;;;;;;;;5074497;28;20713;-47